sensor_id;sensor_type;location;lat;lon;timestamp;temperature;humidity
37560;DHT22;23398;50.928;7.084;2023-12-07T00:01:58;4.00;85.80
37560;DHT22;23398;50.928;7.084;2023-12-07T00:04:24;4.00;86.30
37560;DHT22;23398;50.928;7.084;2023-12-07T00:06:49;4.00;86.90
37560;DHT22;23398;50.928;7.084;2023-12-07T00:09:15;4.00;87.60
37560;DHT22;23398;50.928;7.084;2023-12-07T00:11:40;4.00;88.30
37560;DHT22;23398;50.928;7.084;2023-12-07T00:14:06;4.00;88.50
37560;DHT22;23398;50.928;7.084;2023-12-07T00:16:32;4.00;88.70
37560;DHT22;23398;50.928;7.084;2023-12-07T00:18:57;4.00;88.90
37560;DHT22;23398;50.928;7.084;2023-12-07T00:21:23;4.00;89.10
37560;DHT22;23398;50.928;7.084;2023-12-07T00:23:48;4.00;89.10
37560;DHT22;23398;50.928;7.084;2023-12-07T00:26:14;4.00;89.10
37560;DHT22;23398;50.928;7.084;2023-12-07T00:28:39;4.00;88.70
37560;DHT22;23398;50.928;7.084;2023-12-07T00:31:05;4.00;88.00
37560;DHT22;23398;50.928;7.084;2023-12-07T00:33:31;4.00;87.60
37560;DHT22;23398;50.928;7.084;2023-12-07T00:35:56;4.00;87.40
37560;DHT22;23398;50.928;7.084;2023-12-07T00:38:22;4.00;87.30
37560;DHT22;23398;50.928;7.084;2023-12-07T00:40:48;3.90;87.00
37560;DHT22;23398;50.928;7.084;2023-12-07T00:43:13;3.90;86.80
37560;DHT22;23398;50.928;7.084;2023-12-07T00:45:39;3.90;86.50
37560;DHT22;23398;50.928;7.084;2023-12-07T00:48:05;3.80;86.00
37560;DHT22;23398;50.928;7.084;2023-12-07T00:50:30;3.80;85.40
37560;DHT22;23398;50.928;7.084;2023-12-07T00:52:56;3.80;84.70
37560;DHT22;23398;50.928;7.084;2023-12-07T00:55:22;3.70;84.20
37560;DHT22;23398;50.928;7.084;2023-12-07T00:57:47;3.70;83.90
37560;DHT22;23398;50.928;7.084;2023-12-07T01:00:13;3.60;83.60
37560;DHT22;23398;50.928;7.084;2023-12-07T01:02:39;3.50;83.70
37560;DHT22;23398;50.928;7.084;2023-12-07T01:05:04;3.50;84.10
37560;DHT22;23398;50.928;7.084;2023-12-07T01:07:31;3.40;84.80
37560;DHT22;23398;50.928;7.084;2023-12-07T01:09:56;3.40;86.00
37560;DHT22;23398;50.928;7.084;2023-12-07T01:12:22;3.40;87.40
37560;DHT22;23398;50.928;7.084;2023-12-07T01:14:47;3.30;89.00
37560;DHT22;23398;50.928;7.084;2023-12-07T01:17:13;3.40;90.20
37560;DHT22;23398;50.928;7.084;2023-12-07T01:19:38;3.40;90.70
37560;DHT22;23398;50.928;7.084;2023-12-07T01:22:04;3.50;91.00
37560;DHT22;23398;50.928;7.084;2023-12-07T01:24:29;3.50;91.20
37560;DHT22;23398;50.928;7.084;2023-12-07T01:26:55;3.60;91.30
37560;DHT22;23398;50.928;7.084;2023-12-07T01:29:21;3.70;91.30
37560;DHT22;23398;50.928;7.084;2023-12-07T01:31:46;3.70;91.00
37560;DHT22;23398;50.928;7.084;2023-12-07T01:34:12;3.80;90.70
37560;DHT22;23398;50.928;7.084;2023-12-07T01:36:37;3.80;90.30
37560;DHT22;23398;50.928;7.084;2023-12-07T01:39:03;3.80;89.90
37560;DHT22;23398;50.928;7.084;2023-12-07T01:41:29;3.80;89.30
37560;DHT22;23398;50.928;7.084;2023-12-07T01:43:55;3.80;88.90
37560;DHT22;23398;50.928;7.084;2023-12-07T01:46:21;3.80;88.70
37560;DHT22;23398;50.928;7.084;2023-12-07T01:48:46;3.80;88.50
37560;DHT22;23398;50.928;7.084;2023-12-07T01:51:15;3.80;88.40
37560;DHT22;23398;50.928;7.084;2023-12-07T01:53:42;3.80;88.90
37560;DHT22;23398;50.928;7.084;2023-12-07T01:56:08;3.80;89.70
37560;DHT22;23398;50.928;7.084;2023-12-07T01:58:34;3.80;90.30
37560;DHT22;23398;50.928;7.084;2023-12-07T02:01:01;3.80;90.70
37560;DHT22;23398;50.928;7.084;2023-12-07T02:03:27;3.80;91.00
37560;DHT22;23398;50.928;7.084;2023-12-07T02:05:53;3.80;91.30
37560;DHT22;23398;50.928;7.084;2023-12-07T02:08:20;3.90;91.70
37560;DHT22;23398;50.928;7.084;2023-12-07T02:10:45;4.00;92.00
37560;DHT22;23398;50.928;7.084;2023-12-07T02:13:11;4.10;92.40
37560;DHT22;23398;50.928;7.084;2023-12-07T02:15:37;4.10;92.60
37560;DHT22;23398;50.928;7.084;2023-12-07T02:23:37;4.40;93.20
37560;DHT22;23398;50.928;7.084;2023-12-07T02:26:44;4.50;93.00
37560;DHT22;23398;50.928;7.084;2023-12-07T02:29:13;4.60;93.20
37560;DHT22;23398;50.928;7.084;2023-12-07T02:31:39;4.70;92.90
37560;DHT22;23398;50.928;7.084;2023-12-07T02:34:05;4.80;92.90
37560;DHT22;23398;50.928;7.084;2023-12-07T02:36:32;4.90;92.90
37560;DHT22;23398;50.928;7.084;2023-12-07T02:39:01;5.00;92.80
37560;DHT22;23398;50.928;7.084;2023-12-07T02:41:32;5.10;92.70
37560;DHT22;23398;50.928;7.084;2023-12-07T02:43:59;5.20;92.70
37560;DHT22;23398;50.928;7.084;2023-12-07T02:46:25;5.30;92.60
37560;DHT22;23398;50.928;7.084;2023-12-07T02:48:51;5.40;92.50
37560;DHT22;23398;50.928;7.084;2023-12-07T02:51:17;5.40;92.40
37560;DHT22;23398;50.928;7.084;2023-12-07T02:53:42;5.50;92.20
37560;DHT22;23398;50.928;7.084;2023-12-07T02:56:08;5.60;92.10
37560;DHT22;23398;50.928;7.084;2023-12-07T02:58:34;5.60;92.00
37560;DHT22;23398;50.928;7.084;2023-12-07T03:00:59;5.70;91.90
37560;DHT22;23398;50.928;7.084;2023-12-07T03:03:25;5.80;91.80
37560;DHT22;23398;50.928;7.084;2023-12-07T03:05:50;5.80;91.70
37560;DHT22;23398;50.928;7.084;2023-12-07T03:08:16;5.80;91.60
37560;DHT22;23398;50.928;7.084;2023-12-07T03:10:41;5.90;91.60
37560;DHT22;23398;50.928;7.084;2023-12-07T03:13:07;5.90;91.60
37560;DHT22;23398;50.928;7.084;2023-12-07T03:15:32;6.00;91.80
37560;DHT22;23398;50.928;7.084;2023-12-07T03:17:58;6.00;91.40
37560;DHT22;23398;50.928;7.084;2023-12-07T03:20:24;6.10;91.40
37560;DHT22;23398;50.928;7.084;2023-12-07T03:22:49;6.10;91.40
37560;DHT22;23398;50.928;7.084;2023-12-07T03:25:15;6.10;91.40
37560;DHT22;23398;50.928;7.084;2023-12-07T03:27:40;6.10;91.40
37560;DHT22;23398;50.928;7.084;2023-12-07T03:30:06;6.20;91.50
37560;DHT22;23398;50.928;7.084;2023-12-07T03:32:32;6.20;91.60
37560;DHT22;23398;50.928;7.084;2023-12-07T03:34:58;6.30;91.60
37560;DHT22;23398;50.928;7.084;2023-12-07T03:37:23;6.30;91.60
37560;DHT22;23398;50.928;7.084;2023-12-07T03:39:49;6.30;91.60
37560;DHT22;23398;50.928;7.084;2023-12-07T03:42:14;6.40;91.70
37560;DHT22;23398;50.928;7.084;2023-12-07T03:44:40;6.40;91.80
37560;DHT22;23398;50.928;7.084;2023-12-07T03:47:05;6.50;91.80
37560;DHT22;23398;50.928;7.084;2023-12-07T03:49:31;6.50;91.80
37560;DHT22;23398;50.928;7.084;2023-12-07T03:51:56;6.50;91.70
37560;DHT22;23398;50.928;7.084;2023-12-07T03:54:22;6.60;91.70
37560;DHT22;23398;50.928;7.084;2023-12-07T03:56:47;6.60;91.70
37560;DHT22;23398;50.928;7.084;2023-12-07T03:59:13;6.60;91.70
37560;DHT22;23398;50.928;7.084;2023-12-07T04:01:38;6.60;91.80
37560;DHT22;23398;50.928;7.084;2023-12-07T04:04:04;6.60;91.80
37560;DHT22;23398;50.928;7.084;2023-12-07T04:06:30;6.70;91.80
37560;DHT22;23398;50.928;7.084;2023-12-07T04:08:56;6.70;91.80
37560;DHT22;23398;50.928;7.084;2023-12-07T04:11:21;6.70;91.90
37560;DHT22;23398;50.928;7.084;2023-12-07T04:13:48;6.80;91.90
37560;DHT22;23398;50.928;7.084;2023-12-07T04:16:13;6.80;92.00
37560;DHT22;23398;50.928;7.084;2023-12-07T04:18:39;6.80;92.10
37560;DHT22;23398;50.928;7.084;2023-12-07T04:21:05;6.90;92.10
37560;DHT22;23398;50.928;7.084;2023-12-07T04:23:31;6.90;92.40
37560;DHT22;23398;50.928;7.084;2023-12-07T04:25:56;6.90;92.10
37560;DHT22;23398;50.928;7.084;2023-12-07T04:28:22;7.00;92.10
37560;DHT22;23398;50.928;7.084;2023-12-07T04:30:47;7.00;91.90
37560;DHT22;23398;50.928;7.084;2023-12-07T04:33:13;7.00;91.80
37560;DHT22;23398;50.928;7.084;2023-12-07T04:35:39;7.10;91.80
37560;DHT22;23398;50.928;7.084;2023-12-07T04:38:04;7.10;91.60
37560;DHT22;23398;50.928;7.084;2023-12-07T04:40:30;7.10;91.50
37560;DHT22;23398;50.928;7.084;2023-12-07T04:42:55;7.10;91.30
37560;DHT22;23398;50.928;7.084;2023-12-07T04:45:21;7.20;91.20
37560;DHT22;23398;50.928;7.084;2023-12-07T04:47:47;7.20;91.10
37560;DHT22;23398;50.928;7.084;2023-12-07T04:50:13;7.20;91.00
37560;DHT22;23398;50.928;7.084;2023-12-07T04:52:38;7.20;90.80
37560;DHT22;23398;50.928;7.084;2023-12-07T04:55:05;7.20;90.70
37560;DHT22;23398;50.928;7.084;2023-12-07T04:57:35;7.20;90.50
37560;DHT22;23398;50.928;7.084;2023-12-07T05:00:02;7.20;90.40
37560;DHT22;23398;50.928;7.084;2023-12-07T05:02:31;7.20;90.30
37560;DHT22;23398;50.928;7.084;2023-12-07T05:04:57;7.10;90.20
37560;DHT22;23398;50.928;7.084;2023-12-07T05:07:23;7.10;90.10
37560;DHT22;23398;50.928;7.084;2023-12-07T05:09:49;7.10;90.10
37560;DHT22;23398;50.928;7.084;2023-12-07T05:12:16;7.10;90.20
37560;DHT22;23398;50.928;7.084;2023-12-07T05:14:42;7.10;90.40
37560;DHT22;23398;50.928;7.084;2023-12-07T05:17:07;7.00;90.50
37560;DHT22;23398;50.928;7.084;2023-12-07T05:19:33;7.00;91.00
37560;DHT22;23398;50.928;7.084;2023-12-07T05:21:58;7.00;90.90
37560;DHT22;23398;50.928;7.084;2023-12-07T05:24:24;7.00;91.00
37560;DHT22;23398;50.928;7.084;2023-12-07T05:26:50;7.10;91.20
37560;DHT22;23398;50.928;7.084;2023-12-07T05:29:15;7.00;91.20
37560;DHT22;23398;50.928;7.084;2023-12-07T05:31:41;7.10;91.20
37560;DHT22;23398;50.928;7.084;2023-12-07T05:34:07;7.10;91.10
37560;DHT22;23398;50.928;7.084;2023-12-07T05:36:33;7.10;91.00
37560;DHT22;23398;50.928;7.084;2023-12-07T05:38:58;7.10;90.90
37560;DHT22;23398;50.928;7.084;2023-12-07T05:41:24;7.10;90.70
37560;DHT22;23398;50.928;7.084;2023-12-07T05:43:54;7.10;90.50
37560;DHT22;23398;50.928;7.084;2023-12-07T05:46:19;7.10;90.30
37560;DHT22;23398;50.928;7.084;2023-12-07T05:48:45;7.10;90.00
37560;DHT22;23398;50.928;7.084;2023-12-07T05:51:15;7.00;89.80
37560;DHT22;23398;50.928;7.084;2023-12-07T05:53:41;7.00;89.60
37560;DHT22;23398;50.928;7.084;2023-12-07T05:56:07;6.90;89.20
37560;DHT22;23398;50.928;7.084;2023-12-07T05:58:33;6.90;89.00
37560;DHT22;23398;50.928;7.084;2023-12-07T06:01:00;6.80;88.80
37560;DHT22;23398;50.928;7.084;2023-12-07T06:03:27;6.80;88.70
37560;DHT22;23398;50.928;7.084;2023-12-07T06:05:52;6.80;88.30
37560;DHT22;23398;50.928;7.084;2023-12-07T06:08:19;6.70;88.00
37560;DHT22;23398;50.928;7.084;2023-12-07T06:10:44;6.70;87.80
37560;DHT22;23398;50.928;7.084;2023-12-07T06:13:10;6.60;87.40
37560;DHT22;23398;50.928;7.084;2023-12-07T06:15:36;6.50;87.20
37560;DHT22;23398;50.928;7.084;2023-12-07T06:18:02;6.40;87.10
37560;DHT22;23398;50.928;7.084;2023-12-07T06:20:28;6.40;87.20
37560;DHT22;23398;50.928;7.084;2023-12-07T06:22:54;6.30;87.40
37560;DHT22;23398;50.928;7.084;2023-12-07T06:25:20;6.20;87.50
37560;DHT22;23398;50.928;7.084;2023-12-07T06:27:45;6.10;87.80
37560;DHT22;23398;50.928;7.084;2023-12-07T06:30:11;6.10;87.90
37560;DHT22;23398;50.928;7.084;2023-12-07T06:32:37;6.00;88.00
37560;DHT22;23398;50.928;7.084;2023-12-07T06:35:03;5.90;88.10
37560;DHT22;23398;50.928;7.084;2023-12-07T06:37:31;5.90;88.10
37560;DHT22;23398;50.928;7.084;2023-12-07T06:39:57;5.80;88.10
37560;DHT22;23398;50.928;7.084;2023-12-07T06:42:24;5.80;88.30
37560;DHT22;23398;50.928;7.084;2023-12-07T06:44:49;5.70;88.40
37560;DHT22;23398;50.928;7.084;2023-12-07T06:47:15;5.60;88.40
37560;DHT22;23398;50.928;7.084;2023-12-07T06:49:41;5.60;88.70
37560;DHT22;23398;50.928;7.084;2023-12-07T06:52:07;5.50;88.80
37560;DHT22;23398;50.928;7.084;2023-12-07T06:54:33;5.50;89.10
37560;DHT22;23398;50.928;7.084;2023-12-07T06:56:59;5.40;89.30
37560;DHT22;23398;50.928;7.084;2023-12-07T06:59:24;5.40;89.60
37560;DHT22;23398;50.928;7.084;2023-12-07T07:01:50;5.30;89.80
37560;DHT22;23398;50.928;7.084;2023-12-07T07:04:15;5.30;90.00
37560;DHT22;23398;50.928;7.084;2023-12-07T07:06:42;5.20;90.00
37560;DHT22;23398;50.928;7.084;2023-12-07T07:09:07;5.20;90.10
37560;DHT22;23398;50.928;7.084;2023-12-07T07:11:33;5.10;90.10
37560;DHT22;23398;50.928;7.084;2023-12-07T07:14:00;5.10;90.50
37560;DHT22;23398;50.928;7.084;2023-12-07T07:16:25;5.10;90.20
37560;DHT22;23398;50.928;7.084;2023-12-07T07:18:51;5.10;90.20
37560;DHT22;23398;50.928;7.084;2023-12-07T07:21:16;5.00;90.20
37560;DHT22;23398;50.928;7.084;2023-12-07T07:23:42;5.00;90.10
37560;DHT22;23398;50.928;7.084;2023-12-07T07:26:07;4.90;90.00
37560;DHT22;23398;50.928;7.084;2023-12-07T07:28:33;4.90;90.10
37560;DHT22;23398;50.928;7.084;2023-12-07T07:31:00;4.90;90.20
37560;DHT22;23398;50.928;7.084;2023-12-07T07:33:26;4.80;90.30
37560;DHT22;23398;50.928;7.084;2023-12-07T07:35:51;4.80;90.50
37560;DHT22;23398;50.928;7.084;2023-12-07T07:38:17;4.70;90.60
37560;DHT22;23398;50.928;7.084;2023-12-07T07:40:42;4.70;90.60
37560;DHT22;23398;50.928;7.084;2023-12-07T07:43:10;4.70;90.80
37560;DHT22;23398;50.928;7.084;2023-12-07T07:45:36;4.70;90.90
37560;DHT22;23398;50.928;7.084;2023-12-07T07:48:01;4.70;91.10
37560;DHT22;23398;50.928;7.084;2023-12-07T07:50:27;4.70;91.20
37560;DHT22;23398;50.928;7.084;2023-12-07T07:52:54;4.70;91.30
37560;DHT22;23398;50.928;7.084;2023-12-07T07:55:20;4.70;91.40
37560;DHT22;23398;50.928;7.084;2023-12-07T07:57:46;4.70;91.60
37560;DHT22;23398;50.928;7.084;2023-12-07T08:00:12;4.70;91.70
37560;DHT22;23398;50.928;7.084;2023-12-07T08:02:38;4.70;91.90
37560;DHT22;23398;50.928;7.084;2023-12-07T08:05:04;4.70;92.10
37560;DHT22;23398;50.928;7.084;2023-12-07T08:07:30;4.80;92.20
37560;DHT22;23398;50.928;7.084;2023-12-07T08:09:55;4.80;92.20
37560;DHT22;23398;50.928;7.084;2023-12-07T08:12:21;4.80;92.10
37560;DHT22;23398;50.928;7.084;2023-12-07T08:14:49;4.80;92.10
37560;DHT22;23398;50.928;7.084;2023-12-07T08:17:15;4.90;92.10
37560;DHT22;23398;50.928;7.084;2023-12-07T08:19:44;4.90;92.00
37560;DHT22;23398;50.928;7.084;2023-12-07T08:22:09;5.00;92.00
37560;DHT22;23398;50.928;7.084;2023-12-07T08:24:35;5.10;91.90
37560;DHT22;23398;50.928;7.084;2023-12-07T08:27:02;5.00;91.90
37560;DHT22;23398;50.928;7.084;2023-12-07T08:29:29;5.00;92.30
37560;DHT22;23398;50.928;7.084;2023-12-07T08:31:54;5.10;92.80
37560;DHT22;23398;50.928;7.084;2023-12-07T08:34:20;5.20;93.40
37560;DHT22;23398;50.928;7.084;2023-12-07T08:36:45;5.30;94.50
37560;DHT22;23398;50.928;7.084;2023-12-07T08:39:11;5.40;94.90
37560;DHT22;23398;50.928;7.084;2023-12-07T08:41:37;5.60;95.70
37560;DHT22;23398;50.928;7.084;2023-12-07T08:44:03;5.90;96.20
37560;DHT22;23398;50.928;7.084;2023-12-07T08:46:29;6.20;96.60
37560;DHT22;23398;50.928;7.084;2023-12-07T08:48:54;6.60;96.80
37560;DHT22;23398;50.928;7.084;2023-12-07T08:51:21;6.90;96.90
37560;DHT22;23398;50.928;7.084;2023-12-07T08:53:47;7.40;96.70
37560;DHT22;23398;50.928;7.084;2023-12-07T08:56:12;7.80;96.50
37560;DHT22;23398;50.928;7.084;2023-12-07T08:58:38;8.30;96.00
37560;DHT22;23398;50.928;7.084;2023-12-07T09:01:04;8.70;95.40
37560;DHT22;23398;50.928;7.084;2023-12-07T09:03:31;9.10;94.50
37560;DHT22;23398;50.928;7.084;2023-12-07T09:05:57;9.60;93.30
37560;DHT22;23398;50.928;7.084;2023-12-07T09:08:23;10.00;91.60
37560;DHT22;23398;50.928;7.084;2023-12-07T09:10:48;10.30;88.60
37560;DHT22;23398;50.928;7.084;2023-12-07T09:13:19;10.60;83.60
37560;DHT22;23398;50.928;7.084;2023-12-07T09:15:45;10.90;80.30
37560;DHT22;23398;50.928;7.084;2023-12-07T09:18:10;11.00;77.60
37560;DHT22;23398;50.928;7.084;2023-12-07T09:20:36;11.00;75.30
37560;DHT22;23398;50.928;7.084;2023-12-07T09:23:03;10.90;74.00
37560;DHT22;23398;50.928;7.084;2023-12-07T09:25:29;10.80;72.90
37560;DHT22;23398;50.928;7.084;2023-12-07T09:27:55;10.70;72.60
37560;DHT22;23398;50.928;7.084;2023-12-07T09:30:21;10.50;72.20
37560;DHT22;23398;50.928;7.084;2023-12-07T09:32:47;10.40;72.10
37560;DHT22;23398;50.928;7.084;2023-12-07T09:35:13;10.30;71.90
37560;DHT22;23398;50.928;7.084;2023-12-07T09:37:45;10.10;71.90
37560;DHT22;23398;50.928;7.084;2023-12-07T09:40:21;10.00;71.90
37560;DHT22;23398;50.928;7.084;2023-12-07T09:42:47;9.80;72.90
37560;DHT22;23398;50.928;7.084;2023-12-07T09:45:14;9.70;73.20
37560;DHT22;23398;50.928;7.084;2023-12-07T09:47:42;9.50;73.30
37560;DHT22;23398;50.928;7.084;2023-12-07T09:50:08;9.40;73.80
37560;DHT22;23398;50.928;7.084;2023-12-07T09:52:37;9.30;73.90
37560;DHT22;23398;50.928;7.084;2023-12-07T09:55:03;9.20;73.90
37560;DHT22;23398;50.928;7.084;2023-12-07T09:57:29;9.10;74.30
37560;DHT22;23398;50.928;7.084;2023-12-07T09:59:55;9.00;74.70
37560;DHT22;23398;50.928;7.084;2023-12-07T10:02:22;8.90;75.00
37560;DHT22;23398;50.928;7.084;2023-12-07T10:04:48;8.80;75.20
37560;DHT22;23398;50.928;7.084;2023-12-07T10:07:14;8.80;75.60
37560;DHT22;23398;50.928;7.084;2023-12-07T10:09:40;8.70;75.80
37560;DHT22;23398;50.928;7.084;2023-12-07T10:12:06;8.70;76.40
37560;DHT22;23398;50.928;7.084;2023-12-07T10:14:33;8.70;76.30
37560;DHT22;23398;50.928;7.084;2023-12-07T10:16:59;8.60;76.40
37560;DHT22;23398;50.928;7.084;2023-12-07T10:19:25;8.70;77.10
37560;DHT22;23398;50.928;7.084;2023-12-07T10:21:53;9.30;77.60
37560;DHT22;23398;50.928;7.084;2023-12-07T10:24:23;8.70;76.70
37560;DHT22;23398;50.928;7.084;2023-12-07T10:26:52;8.70;76.10
37560;DHT22;23398;50.928;7.084;2023-12-07T10:29:18;8.70;75.90
37560;DHT22;23398;50.928;7.084;2023-12-07T10:31:48;8.70;75.60
37560;DHT22;23398;50.928;7.084;2023-12-07T10:34:17;8.60;75.20
37560;DHT22;23398;50.928;7.084;2023-12-07T10:36:46;8.60;75.10
37560;DHT22;23398;50.928;7.084;2023-12-07T10:39:12;8.50;75.00
37560;DHT22;23398;50.928;7.084;2023-12-07T10:41:39;8.40;75.00
37560;DHT22;23398;50.928;7.084;2023-12-07T10:44:06;8.40;75.00
37560;DHT22;23398;50.928;7.084;2023-12-07T10:46:33;8.30;74.90
37560;DHT22;23398;50.928;7.084;2023-12-07T10:49:01;8.20;74.90
37560;DHT22;23398;50.928;7.084;2023-12-07T10:51:38;8.20;75.00
37560;DHT22;23398;50.928;7.084;2023-12-07T10:54:07;8.10;75.40
37560;DHT22;23398;50.928;7.084;2023-12-07T10:56:44;8.10;76.20
37560;DHT22;23398;50.928;7.084;2023-12-07T10:59:11;8.00;76.30
37560;DHT22;23398;50.928;7.084;2023-12-07T11:01:40;8.00;76.80
37560;DHT22;23398;50.928;7.084;2023-12-07T11:04:11;8.10;77.20
37560;DHT22;23398;50.928;7.084;2023-12-07T11:06:38;8.10;77.20
37560;DHT22;23398;50.928;7.084;2023-12-07T11:09:12;8.10;77.00
37560;DHT22;23398;50.928;7.084;2023-12-07T11:11:52;8.10;76.60
37560;DHT22;23398;50.928;7.084;2023-12-07T11:14:20;8.10;76.30
37560;DHT22;23398;50.928;7.084;2023-12-07T11:16:46;8.10;76.10
37560;DHT22;23398;50.928;7.084;2023-12-07T11:22:06;8.10;75.40
37560;DHT22;23398;50.928;7.084;2023-12-07T11:24:32;8.10;75.30
37560;DHT22;23398;50.928;7.084;2023-12-07T11:26:58;8.00;75.30
37560;DHT22;23398;50.928;7.084;2023-12-07T11:29:25;8.00;75.30
37560;DHT22;23398;50.928;7.084;2023-12-07T11:31:51;7.90;75.20
37560;DHT22;23398;50.928;7.084;2023-12-07T11:34:39;7.90;75.20
37560;DHT22;23398;50.928;7.084;2023-12-07T11:37:08;7.80;75.10
37560;DHT22;23398;50.928;7.084;2023-12-07T11:39:35;7.80;75.40
37560;DHT22;23398;50.928;7.084;2023-12-07T11:44:41;7.70;75.30
37560;DHT22;23398;50.928;7.084;2023-12-07T11:47:08;7.80;75.60
37560;DHT22;23398;50.928;7.084;2023-12-07T11:49:34;7.60;75.60
37560;DHT22;23398;50.928;7.084;2023-12-07T11:52:01;7.60;75.90
37560;DHT22;23398;50.928;7.084;2023-12-07T11:54:37;7.50;76.10
37560;DHT22;23398;50.928;7.084;2023-12-07T11:57:03;7.50;76.30
37560;DHT22;23398;50.928;7.084;2023-12-07T11:59:29;7.50;76.60
37560;DHT22;23398;50.928;7.084;2023-12-07T12:01:54;7.50;76.90
37560;DHT22;23398;50.928;7.084;2023-12-07T12:04:21;7.50;77.10
37560;DHT22;23398;50.928;7.084;2023-12-07T12:06:47;7.50;77.30
37560;DHT22;23398;50.928;7.084;2023-12-07T12:09:13;7.50;77.70
37560;DHT22;23398;50.928;7.084;2023-12-07T12:11:46;7.50;78.00
37560;DHT22;23398;50.928;7.084;2023-12-07T12:14:18;7.60;78.50
37560;DHT22;23398;50.928;7.084;2023-12-07T12:16:46;7.60;79.00
37560;DHT22;23398;50.928;7.084;2023-12-07T12:19:12;7.60;79.00
37560;DHT22;23398;50.928;7.084;2023-12-07T12:21:37;7.70;79.00
37560;DHT22;23398;50.928;7.084;2023-12-07T12:24:07;7.70;78.70
37560;DHT22;23398;50.928;7.084;2023-12-07T12:26:34;7.80;78.50
37560;DHT22;23398;50.928;7.084;2023-12-07T12:29:01;7.80;78.10
37560;DHT22;23398;50.928;7.084;2023-12-07T12:31:28;7.80;77.90
37560;DHT22;23398;50.928;7.084;2023-12-07T12:33:54;7.90;78.00
37560;DHT22;23398;50.928;7.084;2023-12-07T12:36:20;7.90;77.60
37560;DHT22;23398;50.928;7.084;2023-12-07T12:38:49;7.90;77.40
37560;DHT22;23398;50.928;7.084;2023-12-07T12:41:19;7.90;77.00
37560;DHT22;23398;50.928;7.084;2023-12-07T12:43:45;7.90;77.10
37560;DHT22;23398;50.928;7.084;2023-12-07T12:46:11;7.90;77.00
37560;DHT22;23398;50.928;7.084;2023-12-07T12:48:37;8.00;77.30
37560;DHT22;23398;50.928;7.084;2023-12-07T12:51:12;8.00;77.30
37560;DHT22;23398;50.928;7.084;2023-12-07T12:53:45;8.00;76.80
37560;DHT22;23398;50.928;7.084;2023-12-07T12:56:18;8.00;76.80
37560;DHT22;23398;50.928;7.084;2023-12-07T12:58:44;8.00;77.00
37560;DHT22;23398;50.928;7.084;2023-12-07T13:01:09;8.00;77.00
37560;DHT22;23398;50.928;7.084;2023-12-07T13:03:36;8.10;76.70
37560;DHT22;23398;50.928;7.084;2023-12-07T13:06:01;8.10;76.80
37560;DHT22;23398;50.928;7.084;2023-12-07T13:08:27;8.10;76.60
37560;DHT22;23398;50.928;7.084;2023-12-07T13:10:52;8.10;76.10
37560;DHT22;23398;50.928;7.084;2023-12-07T13:13:18;8.10;76.10
37560;DHT22;23398;50.928;7.084;2023-12-07T13:15:43;8.20;76.40
37560;DHT22;23398;50.928;7.084;2023-12-07T13:18:09;8.20;76.10
37560;DHT22;23398;50.928;7.084;2023-12-07T13:20:35;8.20;75.60
37560;DHT22;23398;50.928;7.084;2023-12-07T13:23:04;8.20;74.60
37560;DHT22;23398;50.928;7.084;2023-12-07T13:25:29;8.20;75.20
37560;DHT22;23398;50.928;7.084;2023-12-07T13:27:55;8.20;75.40
37560;DHT22;23398;50.928;7.084;2023-12-07T13:30:21;8.20;75.40
37560;DHT22;23398;50.928;7.084;2023-12-07T13:32:46;8.20;75.10
37560;DHT22;23398;50.928;7.084;2023-12-07T13:35:13;8.10;74.80
37560;DHT22;23398;50.928;7.084;2023-12-07T13:37:39;8.10;74.90
37560;DHT22;23398;50.928;7.084;2023-12-07T13:40:05;8.10;75.00
37560;DHT22;23398;50.928;7.084;2023-12-07T13:42:35;8.00;73.20
37560;DHT22;23398;50.928;7.084;2023-12-07T13:45:01;8.00;74.60
37560;DHT22;23398;50.928;7.084;2023-12-07T13:47:27;8.00;75.20
37560;DHT22;23398;50.928;7.084;2023-12-07T13:50:02;8.00;75.00
37560;DHT22;23398;50.928;7.084;2023-12-07T13:52:29;8.10;75.00
37560;DHT22;23398;50.928;7.084;2023-12-07T13:54:55;8.10;75.10
37560;DHT22;23398;50.928;7.084;2023-12-07T13:57:21;8.10;75.10
37560;DHT22;23398;50.928;7.084;2023-12-07T13:59:50;8.10;75.00
37560;DHT22;23398;50.928;7.084;2023-12-07T14:02:16;8.10;74.80
37560;DHT22;23398;50.928;7.084;2023-12-07T14:04:41;8.10;74.70
37560;DHT22;23398;50.928;7.084;2023-12-07T14:09:34;8.10;74.70
37560;DHT22;23398;50.928;7.084;2023-12-07T14:12:00;8.10;74.60
37560;DHT22;23398;50.928;7.084;2023-12-07T14:14:25;8.10;74.70
37560;DHT22;23398;50.928;7.084;2023-12-07T14:16:51;8.10;74.40
37560;DHT22;23398;50.928;7.084;2023-12-07T14:19:16;8.10;74.40
37560;DHT22;23398;50.928;7.084;2023-12-07T14:21:42;8.10;74.60
37560;DHT22;23398;50.928;7.084;2023-12-07T14:24:08;8.10;74.30
37560;DHT22;23398;50.928;7.084;2023-12-07T14:26:34;8.10;74.20
37560;DHT22;23398;50.928;7.084;2023-12-07T14:29:01;8.00;74.00
37560;DHT22;23398;50.928;7.084;2023-12-07T14:31:26;8.00;74.30
37560;DHT22;23398;50.928;7.084;2023-12-07T14:33:52;8.00;74.20
37560;DHT22;23398;50.928;7.084;2023-12-07T14:36:18;7.90;74.10
37560;DHT22;23398;50.928;7.084;2023-12-07T14:38:45;7.90;74.00
37560;DHT22;23398;50.928;7.084;2023-12-07T14:41:10;7.90;74.00
37560;DHT22;23398;50.928;7.084;2023-12-07T14:43:38;7.80;74.20
37560;DHT22;23398;50.928;7.084;2023-12-07T14:46:06;7.80;74.10
37560;DHT22;23398;50.928;7.084;2023-12-07T14:48:32;7.70;74.90
37560;DHT22;23398;50.928;7.084;2023-12-07T14:50:58;7.70;74.30
37560;DHT22;23398;50.928;7.084;2023-12-07T14:53:24;7.70;74.40
37560;DHT22;23398;50.928;7.084;2023-12-07T14:55:50;7.60;74.30
37560;DHT22;23398;50.928;7.084;2023-12-07T14:58:16;7.60;74.50
37560;DHT22;23398;50.928;7.084;2023-12-07T15:00:42;7.50;74.40
37560;DHT22;23398;50.928;7.084;2023-12-07T15:03:08;7.50;74.50
37560;DHT22;23398;50.928;7.084;2023-12-07T15:05:33;7.40;74.60
37560;DHT22;23398;50.928;7.084;2023-12-07T15:07:59;7.40;74.60
37560;DHT22;23398;50.928;7.084;2023-12-07T15:10:25;7.30;74.60
37560;DHT22;23398;50.928;7.084;2023-12-07T15:12:50;7.30;74.80
37560;DHT22;23398;50.928;7.084;2023-12-07T15:15:17;7.20;74.80
37560;DHT22;23398;50.928;7.084;2023-12-07T15:17:42;7.20;74.80
37560;DHT22;23398;50.928;7.084;2023-12-07T15:20:09;7.20;74.90
37560;DHT22;23398;50.928;7.084;2023-12-07T15:22:35;7.10;74.90
37560;DHT22;23398;50.928;7.084;2023-12-07T15:25:01;7.10;75.00
37560;DHT22;23398;50.928;7.084;2023-12-07T15:27:26;7.00;75.00
37560;DHT22;23398;50.928;7.084;2023-12-07T15:29:52;7.00;75.10
37560;DHT22;23398;50.928;7.084;2023-12-07T15:32:18;6.90;75.20
37560;DHT22;23398;50.928;7.084;2023-12-07T15:34:43;6.80;75.20
37560;DHT22;23398;50.928;7.084;2023-12-07T15:37:09;6.80;75.30
37560;DHT22;23398;50.928;7.084;2023-12-07T15:39:42;6.70;75.30
37560;DHT22;23398;50.928;7.084;2023-12-07T15:42:10;6.70;75.60
37560;DHT22;23398;50.928;7.084;2023-12-07T15:44:36;6.70;75.70
37560;DHT22;23398;50.928;7.084;2023-12-07T15:47:02;6.60;75.70
37560;DHT22;23398;50.928;7.084;2023-12-07T15:49:31;6.60;75.90
37560;DHT22;23398;50.928;7.084;2023-12-07T15:51:56;6.50;76.00
37560;DHT22;23398;50.928;7.084;2023-12-07T15:54:22;6.50;76.10